Terminal Aerodrome Forecast
Issued by NWS Wichita, KS

Home | Current Version | Previous Version | Text Only | Print | Product List | Glossary Off
Versions: 1 2 3 4 5 6 7 8 9 10 11 12 13 14 15 16 17

554
FTUS43 KICT 210529
TAFICT
TAF
KICT 210529Z 2106/2206 15008KT P6SM SCT060
     FM211200 18015G24KT P6SM BKN090
     FM211900 19015G23KT P6SM BKN080
     FM220200 21011KT P6SM BKN035=

USA.gov is the U.S. government's official web portal to all federal, state and local government web resources and services.